Etusivu
METAR-TAF:

METAR-TAF

Lentoasemat :

Auburn, Indiana, Yhdysvallat

Leveyspiiri: 41-18-26N, Pituuspiiri: 085-03-52W, korkeus merenpinnasta: 268 m

Tämänhetkinen sää

Tämä raportti tehtiin 19 minuuttia sitten, kello 10.55 UTC
Tuuli 7 kn luoteesta
Lämpötila -6°C
Kosteus 86%
Ilmanpaine 1024 hPa
Näkyvyys: 16.1 km
Hajanaisia pilviä 1700 ft:n korkeudessa
Hajanaisia pilviä 8000 ft:n korkeudessa

METAR: KGWB 121055Z AUTO 31007KT 10SM SCT017 SCT080 M06/M08 A3025 RMK AO2

Aika: 06:14 (11:14 UTC)


TAF: puuttuu

Säähavainnot ja -ennusteet yli 4000 lentoasemalta (METAR- ja TAF-raportit).

Käytössä olevat sääasemat on merkitty karttaan keltaisilla ja punaisilla pisteillä.

Aseta hiiri pisteen päälle nähdäksesi sääaseman nimen.

Klikkaa sitten nähdäksesi säähavainnot ja -ennusteet.

Kartan vaihtaminen: klikkaa mustalla rastilla varustettuja vihreitä pisteitä, niin voit zoomata sisään; viivalla varustettua vihreää pistettä, niin voit zoomata ulos tai vihreitä nuolia, niin pääset viereisille kartoille.


METAR-TAF: